createdAt,value
2023-02-11T00:01:43.670Z,35.50
2023-02-11T00:03:46.833Z,32.07
2023-02-11T00:05:58.542Z,33.87
2023-02-11T00:08:01.550Z,33.80
2023-02-11T00:10:06.472Z,35.63
2023-02-11T00:12:09.466Z,33.40
2023-02-11T00:14:13.176Z,35.43
2023-02-11T00:16:18.928Z,36.50
2023-02-11T00:18:24.248Z,37.03
2023-02-11T00:20:27.212Z,36.60
2023-02-11T00:22:30.131Z,36.70
2023-02-11T00:24:33.211Z,38.57
2023-02-11T00:26:37.147Z,39.03
2023-02-11T00:28:40.168Z,36.93
2023-02-11T00:30:43.274Z,35.90
2023-02-11T00:32:46.285Z,36.70
2023-02-11T00:34:53.273Z,39.50
2023-02-11T00:36:56.179Z,41.80
2023-02-11T00:39:01.568Z,36.70
2023-02-11T00:41:04.912Z,37.90
2023-02-11T00:43:07.873Z,39.80
2023-02-11T00:45:11.035Z,38.50
2023-02-11T00:47:14.129Z,39.30
2023-02-11T00:49:17.205Z,40.80
2023-02-11T00:51:21.735Z,39.40
2023-02-11T00:53:24.954Z,40.07
2023-02-11T00:55:28.064Z,39.53
2023-02-11T00:57:32.083Z,39.97
2023-02-11T00:59:35.071Z,37.33
2023-02-11T01:01:38.072Z,36.50
2023-02-11T01:03:41.418Z,36.30
2023-02-11T01:05:44.425Z,34.17
2023-02-11T01:07:48.907Z,37.67
2023-02-11T01:09:51.910Z,35.47
2023-02-11T01:11:54.910Z,42.63
2023-02-11T01:13:57.912Z,40.27
2023-02-11T01:16:01.334Z,37.70
2023-02-11T01:18:06.224Z,37.97
2023-02-11T01:20:14.808Z,38.50
2023-02-11T01:22:17.731Z,36.03
2023-02-11T01:24:22.158Z,40.27
2023-02-11T01:26:25.232Z,39.90
2023-02-11T01:28:30.939Z,41.37
2023-02-11T01:30:35.759Z,43.07
2023-02-11T01:32:39.508Z,39.27
2023-02-11T01:34:44.248Z,38.67
2023-02-11T01:36:47.177Z,40.27
2023-02-11T01:38:50.695Z,46.17
2023-02-11T01:40:57.331Z,42.70
2023-02-11T01:43:00.781Z,46.10
2023-02-11T01:45:44.853Z,43.93
2023-02-11T01:47:48.510Z,44.23
2023-02-11T01:49:56.750Z,44.40
2023-02-11T01:52:02.945Z,41.63
2023-02-11T01:54:25.615Z,45.27
2023-02-11T01:56:49.793Z,45.37
2023-02-11T01:58:54.357Z,46.83
2023-02-11T02:00:58.833Z,45.97
2023-02-11T02:03:06.018Z,46.83
2023-02-11T02:05:15.795Z,49.23
2023-02-11T02:07:26.114Z,46.57
2023-02-11T02:09:35.448Z,52.77
2023-02-11T02:11:39.958Z,48.23
2023-02-11T02:13:42.938Z,48.70
2023-02-11T02:15:51.882Z,47.23
2023-02-11T02:18:02.439Z,47.67
2023-02-11T02:20:42.966Z,45.90
2023-02-11T02:23:22.638Z,50.63
2023-02-11T02:26:01.311Z,45.17
2023-02-11T02:28:23.429Z,48.47
2023-02-11T02:31:11.385Z,47.30
2023-02-11T02:33:30.609Z,47.50
2023-02-11T02:35:42.482Z,54.43
2023-02-11T02:37:52.092Z,48.17
2023-02-11T02:39:58.606Z,48.13
2023-02-11T02:42:01.898Z,47.40
2023-02-11T02:44:05.049Z,48.97
2023-02-11T02:46:16.274Z,52.43
2023-02-11T02:48:29.276Z,49.20
2023-02-11T02:50:36.244Z,52.80
2023-02-11T02:52:47.210Z,48.67
2023-02-11T02:55:08.625Z,50.73
2023-02-11T02:57:25.437Z,48.03
2023-02-11T02:59:39.800Z,49.27
2023-02-11T03:01:51.599Z,46.50
2023-02-11T03:04:04.527Z,50.80
2023-02-11T03:06:12.970Z,51.27
2023-02-11T03:08:19.516Z,48.50
2023-02-11T03:10:27.433Z,54.63
2023-02-11T03:12:32.559Z,47.60
2023-02-11T03:14:37.544Z,48.90
2023-02-11T03:16:41.130Z,52.23
2023-02-11T03:18:48.970Z,52.97
2023-02-11T03:20:55.399Z,53.13
2023-02-11T03:23:03.164Z,49.70
2023-02-11T03:25:07.330Z,52.57
2023-02-11T03:27:16.546Z,52.07
2023-02-11T03:29:29.263Z,52.27
2023-02-11T03:31:37.942Z,46.00
2023-02-11T03:33:48.013Z,51.33
2023-02-11T03:35:57.247Z,50.63
2023-02-11T03:38:05.542Z,52.07
2023-02-11T03:40:11.639Z,51.00
2023-02-11T03:42:17.183Z,52.47
2023-02-11T03:44:21.882Z,55.20
2023-02-11T03:46:29.663Z,53.40
2023-02-11T03:48:35.966Z,50.13
2023-02-11T03:50:41.316Z,54.97
2023-02-11T03:52:48.060Z,51.97
2023-02-11T03:54:56.736Z,55.30
2023-02-11T03:57:02.907Z,52.40
2023-02-11T03:59:05.796Z,47.73
2023-02-11T04:01:09.805Z,50.70
2023-02-11T04:03:13.669Z,51.43
2023-02-11T04:05:17.739Z,51.07
2023-02-11T04:07:20.573Z,54.20
2023-02-11T04:09:24.944Z,50.07
2023-02-11T04:11:28.273Z,48.60
2023-02-11T04:13:31.352Z,50.47
2023-02-11T04:15:34.369Z,49.57
2023-02-11T04:17:37.973Z,50.43
2023-02-11T04:19:40.950Z,54.97
2023-02-11T04:21:43.875Z,49.53
2023-02-11T04:23:46.856Z,46.47
2023-02-11T04:25:52.181Z,41.40
2023-02-11T04:27:56.690Z,41.63
2023-02-11T04:30:00.025Z,40.57
2023-02-11T04:32:02.994Z,37.83
2023-02-11T04:34:06.184Z,40.27
2023-02-11T04:36:10.682Z,42.63
2023-02-11T04:38:13.698Z,39.03
2023-02-11T04:40:16.924Z,45.33
2023-02-11T04:42:21.308Z,49.20
2023-02-11T04:44:24.517Z,49.60
2023-02-11T04:46:27.570Z,59.37
2023-02-11T04:48:30.530Z,59.43
2023-02-11T04:50:33.809Z,54.37
2023-02-11T04:52:36.702Z,49.13
2023-02-11T04:54:39.844Z,55.90
2023-02-11T04:56:42.859Z,60.57
2023-02-11T04:58:47.269Z,59.73
2023-02-11T05:00:50.568Z,57.23
2023-02-11T05:02:53.582Z,57.70
2023-02-11T05:04:56.592Z,55.47
2023-02-11T05:06:59.564Z,59.03
2023-02-11T05:09:02.474Z,58.03
2023-02-11T05:11:05.702Z,63.43
2023-02-11T05:13:08.517Z,57.73
2023-02-11T05:15:12.836Z,58.27
2023-02-11T05:17:16.148Z,61.00
2023-02-11T05:19:19.469Z,58.93
2023-02-11T05:21:22.397Z,59.73
2023-02-11T05:23:25.441Z,56.53
2023-02-11T05:25:28.366Z,53.77
2023-02-11T05:27:31.267Z,58.33
2023-02-11T05:29:34.147Z,58.10
2023-02-11T05:31:38.480Z,56.53
2023-02-11T05:33:41.865Z,57.17
2023-02-11T05:35:44.777Z,56.87
2023-02-11T05:37:47.675Z,61.60
2023-02-11T05:39:50.782Z,65.63
2023-02-11T05:41:53.919Z,62.67
2023-02-11T05:43:56.808Z,63.60
2023-02-11T05:45:59.800Z,61.00
2023-02-11T05:48:04.205Z,59.97
2023-02-11T05:50:07.750Z,64.00
2023-02-11T05:52:10.851Z,65.07
2023-02-11T05:54:13.844Z,67.40
2023-02-11T05:56:16.896Z,64.47
2023-02-11T05:58:19.944Z,59.77
2023-02-11T06:00:23.228Z,62.97
2023-02-11T06:02:28.495Z,66.57
2023-02-11T06:04:32.839Z,62.93
2023-02-11T06:06:35.855Z,67.10
2023-02-11T06:08:39.470Z,67.67
2023-02-11T06:10:43.086Z,64.97
2023-02-11T06:12:46.098Z,63.50
2023-02-11T06:14:49.059Z,70.57
2023-02-11T06:16:52.071Z,63.83
2023-02-11T06:18:54.951Z,67.53
2023-02-11T06:20:59.401Z,66.70
2023-02-11T06:23:02.342Z,68.50
2023-02-11T06:25:06.088Z,70.63
2023-02-11T06:27:09.033Z,68.60
2023-02-11T06:29:12.946Z,62.83
2023-02-11T06:31:17.048Z,62.83
2023-02-11T06:33:20.058Z,61.93
2023-02-11T06:35:23.020Z,61.40
2023-02-11T06:37:27.372Z,64.23
2023-02-11T06:39:30.472Z,66.17
2023-02-11T06:41:33.670Z,62.53
2023-02-11T06:43:36.674Z,63.83
2023-02-11T06:45:39.656Z,66.40
2023-02-11T06:47:42.956Z,64.40
2023-02-11T06:49:46.762Z,63.60
2023-02-11T06:51:49.607Z,70.70
2023-02-11T06:53:54.599Z,68.07
2023-02-11T06:55:57.552Z,69.87
2023-02-11T06:58:00.517Z,63.27
2023-02-11T07:00:03.948Z,68.43
2023-02-11T07:02:07.656Z,67.53
2023-02-11T07:04:10.745Z,65.17
2023-02-11T07:06:15.395Z,63.40
2023-02-11T07:08:18.347Z,61.50
2023-02-11T07:10:22.666Z,63.73
2023-02-11T07:12:25.729Z,64.40
2023-02-11T07:14:28.618Z,64.63
2023-02-11T07:16:31.988Z,64.47
2023-02-11T07:18:35.124Z,59.43
2023-02-11T07:20:38.665Z,57.87
2023-02-11T07:22:41.639Z,58.17
2023-02-11T07:24:44.777Z,62.37
2023-02-11T07:26:49.215Z,62.93
2023-02-11T07:28:52.789Z,63.03
2023-02-11T07:30:58.825Z,61.37
2023-02-11T07:33:01.782Z,58.57
2023-02-11T07:35:05.303Z,57.40
2023-02-11T07:37:08.346Z,56.03
2023-02-11T07:39:13.597Z,56.13
2023-02-11T07:41:19.654Z,52.13
2023-02-11T07:43:24.320Z,55.73
2023-02-11T07:45:27.367Z,54.33
2023-02-11T07:47:30.311Z,56.83
2023-02-11T07:49:33.195Z,54.80
2023-02-11T07:51:36.163Z,53.43
2023-02-11T07:53:39.308Z,51.87
2023-02-11T07:55:45.036Z,49.47
2023-02-11T07:57:47.909Z,49.70
2023-02-11T07:59:52.167Z,48.27
2023-02-11T08:01:55.197Z,51.93
2023-02-11T08:03:59.611Z,48.17
2023-02-11T08:06:05.139Z,47.23
2023-02-11T08:08:08.108Z,47.43
2023-02-11T08:10:12.409Z,49.67
2023-02-11T08:12:15.300Z,47.40
2023-02-11T08:14:18.230Z,45.93
2023-02-11T08:16:24.726Z,46.73
2023-02-11T08:18:27.899Z,48.53
2023-02-11T08:20:30.926Z,45.17
2023-02-11T08:22:35.178Z,47.90
2023-02-11T08:24:38.152Z,44.07
2023-02-11T08:26:41.443Z,47.77
2023-02-11T08:28:46.365Z,42.20
2023-02-11T08:30:49.648Z,44.70
2023-02-11T08:32:56.948Z,46.37
2023-02-11T08:34:59.934Z,43.67
2023-02-11T08:37:03.007Z,48.13
2023-02-11T08:39:18.730Z,44.33
2023-02-11T08:41:22.761Z,47.07
2023-02-11T08:43:25.681Z,43.20
2023-02-11T08:45:28.844Z,39.67
2023-02-11T08:47:32.426Z,43.50
2023-02-11T08:49:37.427Z,43.57
2023-02-11T08:51:40.744Z,42.70
2023-02-11T08:53:43.668Z,37.70
2023-02-11T08:55:53.637Z,40.47
2023-02-11T08:57:56.712Z,44.60
2023-02-11T09:00:00.893Z,41.63
2023-02-11T09:02:06.210Z,42.57
2023-02-11T09:04:11.050Z,39.57
2023-02-11T09:06:17.586Z,46.20
2023-02-11T09:08:22.182Z,44.77
2023-02-11T09:10:28.164Z,38.03
2023-02-11T09:12:31.191Z,41.23
2023-02-11T09:14:34.110Z,39.90
2023-02-11T09:16:38.237Z,40.90
2023-02-11T09:18:41.321Z,41.90
2023-02-11T09:20:44.491Z,42.33
2023-02-11T09:22:49.321Z,40.27
2023-02-11T09:24:52.233Z,41.47
2023-02-11T09:26:55.085Z,40.00
2023-02-11T09:29:00.495Z,38.67
2023-02-11T09:31:06.722Z,39.37
2023-02-11T09:35:26.563Z,40.83
2023-02-11T09:37:29.619Z,42.63
2023-02-11T09:39:33.988Z,41.03
2023-02-11T09:41:44.430Z,36.70
2023-02-11T09:43:49.177Z,39.77
2023-02-11T09:45:54.952Z,41.30
2023-02-11T09:48:00.470Z,41.83
2023-02-11T09:50:07.005Z,42.03
2023-02-11T09:52:20.137Z,39.17
2023-02-11T09:54:30.502Z,44.13
2023-02-11T09:56:35.022Z,37.70
2023-02-11T09:58:41.043Z,39.73
2023-02-11T10:00:47.927Z,41.37
2023-02-11T10:03:13.460Z,46.73
2023-02-11T10:05:27.697Z,40.40
2023-02-11T10:07:41.684Z,38.90
2023-02-11T10:09:55.492Z,44.47
2023-02-11T10:12:12.552Z,38.77
2023-02-11T10:14:29.046Z,41.07
2023-02-11T10:16:52.474Z,41.37
2023-02-11T10:19:13.822Z,42.20
2023-02-11T10:21:25.647Z,38.13
2023-02-11T10:23:34.457Z,39.20
2023-02-11T10:25:40.019Z,39.00
2023-02-11T10:27:50.170Z,41.00
2023-02-11T10:29:57.773Z,38.50
2023-02-11T10:32:02.260Z,41.23
2023-02-11T10:34:07.256Z,42.03
2023-02-11T10:36:13.306Z,40.37
2023-02-11T10:38:16.353Z,40.83
2023-02-11T10:40:21.963Z,44.03
2023-02-11T10:42:26.918Z,43.23
2023-02-11T10:44:34.646Z,39.73
2023-02-11T10:46:40.104Z,37.40
2023-02-11T10:48:46.414Z,39.07
2023-02-11T10:50:49.699Z,39.10
2023-02-11T10:52:53.027Z,40.00
2023-02-11T10:55:04.594Z,37.87
2023-02-11T10:57:08.549Z,40.20
2023-02-11T10:59:21.148Z,35.13
2023-02-11T11:01:39.613Z,41.30
2023-02-11T11:03:49.298Z,36.47
2023-02-11T11:05:58.216Z,38.47
2023-02-11T11:08:04.936Z,37.43
2023-02-11T11:10:26.263Z,38.43
2023-02-11T11:12:32.629Z,42.67
2023-02-11T11:14:35.572Z,41.23
2023-02-11T11:16:56.946Z,36.27
2023-02-11T11:19:21.351Z,38.10
2023-02-11T11:21:26.136Z,39.87
2023-02-11T11:23:32.684Z,41.20
2023-02-11T11:25:45.883Z,35.57
2023-02-11T11:27:50.604Z,37.67
2023-02-11T11:29:57.578Z,36.47
2023-02-11T11:32:05.330Z,40.00
2023-02-11T11:34:25.335Z,38.97
2023-02-11T11:36:36.105Z,35.77
2023-02-11T11:38:45.689Z,36.33
2023-02-11T11:41:22.338Z,40.80
2023-02-11T11:43:25.199Z,38.67
2023-02-11T11:45:28.673Z,39.87
2023-02-11T11:47:38.928Z,36.43
2023-02-11T11:49:49.135Z,41.23
2023-02-11T11:52:01.572Z,40.87
2023-02-11T11:54:10.072Z,43.50
2023-02-11T11:56:16.273Z,40.33
2023-02-11T11:58:22.076Z,37.70
2023-02-11T12:00:32.159Z,38.53
2023-02-11T12:03:05.470Z,45.83
2023-02-11T12:05:12.789Z,41.77
2023-02-11T12:07:31.082Z,37.87
2023-02-11T12:09:45.401Z,38.00
2023-02-11T12:12:17.857Z,40.27
2023-02-11T12:14:30.022Z,37.97
2023-02-11T12:16:42.167Z,38.07
2023-02-11T12:19:14.083Z,38.43
2023-02-11T12:21:29.324Z,37.43
2023-02-11T12:23:46.153Z,37.10
2023-02-11T12:25:58.234Z,41.20
2023-02-11T12:28:14.061Z,35.33
2023-02-11T12:30:35.856Z,37.77
2023-02-11T12:32:46.068Z,36.37
2023-02-11T12:35:08.197Z,35.37
2023-02-11T12:37:25.680Z,38.10
2023-02-11T12:39:41.162Z,36.43
2023-02-11T12:42:13.734Z,36.27
2023-02-11T12:44:26.482Z,30.87
2023-02-11T12:46:37.016Z,34.70
2023-02-11T12:49:01.201Z,34.97
2023-02-11T12:51:19.605Z,33.00
2023-02-11T12:53:40.462Z,30.57
2023-02-11T12:55:46.854Z,26.27
2023-02-11T12:57:52.365Z,28.87
2023-02-11T13:00:01.687Z,23.10
2023-02-11T13:02:15.507Z,23.03
2023-02-11T13:04:24.644Z,22.43
2023-02-11T13:06:35.532Z,20.10
2023-02-11T13:08:43.282Z,20.47
2023-02-11T13:10:50.212Z,23.30
2023-02-11T13:13:12.917Z,21.90
2023-02-11T13:15:16.591Z,20.50
2023-02-11T13:17:41.574Z,19.33
2023-02-11T13:19:49.480Z,20.07
2023-02-11T13:22:12.126Z,17.50
2023-02-11T13:24:23.508Z,18.53
2023-02-11T13:26:32.692Z,20.13
2023-02-11T13:28:44.697Z,19.63
2023-02-11T13:30:52.213Z,18.33
2023-02-11T13:33:22.459Z,18.33
2023-02-11T13:35:29.747Z,18.47
2023-02-11T13:37:38.731Z,19.17
2023-02-11T13:39:41.702Z,18.57
2023-02-11T13:41:51.487Z,16.53
2023-02-11T13:44:03.800Z,16.90
2023-02-11T13:46:09.937Z,18.87
2023-02-11T13:48:19.044Z,18.93
2023-02-11T13:50:25.646Z,20.00
2023-02-11T13:52:31.455Z,18.87
2023-02-11T13:54:38.680Z,19.43
2023-02-11T13:56:44.261Z,18.20
2023-02-11T13:58:51.026Z,19.03
2023-02-11T14:00:54.468Z,17.63
2023-02-11T14:03:42.587Z,17.20
2023-02-11T14:06:29.627Z,19.40
2023-02-11T14:08:50.036Z,18.23
2023-02-11T14:10:55.547Z,19.03
2023-02-11T14:13:07.806Z,18.20
2023-02-11T14:15:24.481Z,17.37
2023-02-11T14:17:34.961Z,18.50
2023-02-11T14:19:40.826Z,19.07
2023-02-11T14:21:45.500Z,16.13
2023-02-11T14:23:48.577Z,19.50
2023-02-11T14:26:05.939Z,19.53
2023-02-11T14:28:16.797Z,19.10
2023-02-11T14:30:31.827Z,18.17
2023-02-11T14:32:45.548Z,19.87
2023-02-11T14:34:57.539Z,19.97
2023-02-11T14:37:12.914Z,20.60
2023-02-11T14:39:27.403Z,19.00
2023-02-11T14:41:36.512Z,17.80
2023-02-11T14:43:42.815Z,19.03
2023-02-11T14:45:49.140Z,19.73
2023-02-11T14:47:57.084Z,19.43
2023-02-11T14:49:59.974Z,19.83
2023-02-11T14:52:16.964Z,17.90
2023-02-11T14:54:24.335Z,19.67
2023-02-11T14:56:30.943Z,18.37
2023-02-11T14:58:35.660Z,23.30
2023-02-11T15:00:47.687Z,18.00
2023-02-11T15:02:50.576Z,19.13
2023-02-11T15:04:55.104Z,17.03
2023-02-11T15:07:01.304Z,18.57
2023-02-11T15:09:08.636Z,18.23
2023-02-11T15:11:16.994Z,17.20
2023-02-11T15:13:22.522Z,17.03
2023-02-11T15:15:27.030Z,21.23
2023-02-11T15:17:32.975Z,20.73
2023-02-11T15:19:39.353Z,18.30
2023-02-11T15:21:46.888Z,18.57
2023-02-11T15:23:58.545Z,18.77
2023-02-11T15:26:03.167Z,16.47
2023-02-11T15:28:21.225Z,18.00
2023-02-11T15:30:32.212Z,19.77
2023-02-11T15:32:36.680Z,17.90
2023-02-11T15:34:40.231Z,17.73
2023-02-11T15:36:43.666Z,17.93
2023-02-11T15:38:46.674Z,18.97
2023-02-11T15:40:56.342Z,18.13
2023-02-11T15:43:02.711Z,17.23
2023-02-11T15:45:11.684Z,17.97
2023-02-11T15:47:20.622Z,18.70
2023-02-11T15:49:24.925Z,19.87
2023-02-11T15:51:32.882Z,19.90
2023-02-11T15:53:40.939Z,18.60
2023-02-11T15:55:43.736Z,21.07
2023-02-11T15:57:50.322Z,20.73
2023-02-11T15:59:54.827Z,20.37
2023-02-11T16:01:59.930Z,19.57
2023-02-11T16:04:05.533Z,18.33
2023-02-11T16:06:22.931Z,21.10
2023-02-11T16:08:29.311Z,22.90
2023-02-11T16:10:34.287Z,21.23
2023-02-11T16:12:37.311Z,20.93
2023-02-11T16:14:40.519Z,24.67
2023-02-11T16:16:49.640Z,23.87
2023-02-11T16:19:04.967Z,24.97
2023-02-11T16:21:17.092Z,25.07
2023-02-11T16:23:24.692Z,23.73
2023-02-11T16:25:27.669Z,23.73
2023-02-11T16:27:38.840Z,26.07
2023-02-11T16:29:46.341Z,24.43
2023-02-11T16:31:50.278Z,25.93
2023-02-11T16:33:53.414Z,27.67
2023-02-11T16:35:56.285Z,28.60
2023-02-11T16:38:00.737Z,26.97
2023-02-11T16:40:03.621Z,30.17
2023-02-11T16:42:07.880Z,42.83
2023-02-11T16:44:11.026Z,26.70
2023-02-11T16:46:16.811Z,31.37
2023-02-11T16:48:21.173Z,28.60
2023-02-11T16:50:26.481Z,30.60
2023-02-11T16:52:31.421Z,33.43
2023-02-11T16:54:38.156Z,33.57
2023-02-11T16:56:41.113Z,32.30
2023-02-11T16:58:44.162Z,33.50
2023-02-11T17:00:48.856Z,35.47
2023-02-11T17:02:52.117Z,31.13
2023-02-11T17:04:56.397Z,35.07
2023-02-11T17:06:59.486Z,43.53
2023-02-11T17:09:02.532Z,29.87
2023-02-11T17:11:07.086Z,34.00
2023-02-11T17:13:10.671Z,34.13
2023-02-11T17:15:13.579Z,35.53
2023-02-11T17:17:17.473Z,36.77
2023-02-11T17:19:21.882Z,33.27
2023-02-11T17:21:29.862Z,32.63
2023-02-11T17:23:33.170Z,36.77
2023-02-11T17:25:37.250Z,34.20
2023-02-11T17:27:41.708Z,32.50
2023-02-11T17:29:44.580Z,37.20
2023-02-11T17:31:47.709Z,34.47
2023-02-11T17:33:50.793Z,31.50
2023-02-11T17:35:56.937Z,35.43
2023-02-11T17:38:01.310Z,34.70
2023-02-11T17:40:04.408Z,33.07
2023-02-11T17:42:08.679Z,36.73
2023-02-11T17:44:14.005Z,37.20
2023-02-11T17:46:17.478Z,40.87
2023-02-11T17:48:20.825Z,37.73
2023-02-11T17:50:23.751Z,39.00
2023-02-11T17:52:28.100Z,39.43
2023-02-11T17:54:34.561Z,38.20
2023-02-11T17:56:37.923Z,34.97
2023-02-11T17:58:41.688Z,35.37
2023-02-11T18:00:46.583Z,38.00
2023-02-11T18:02:50.097Z,37.87
2023-02-11T18:04:57.469Z,34.90
2023-02-11T18:07:00.423Z,44.03
2023-02-11T18:09:04.412Z,37.07
2023-02-11T18:11:13.104Z,36.67
2023-02-11T18:13:18.218Z,34.67
2023-02-11T18:15:21.049Z,34.83
2023-02-11T18:17:25.270Z,37.57
2023-02-11T18:19:30.446Z,39.47
2023-02-11T18:21:33.957Z,36.20
2023-02-11T18:23:36.982Z,39.53
2023-02-11T18:25:44.272Z,44.43
2023-02-11T18:27:47.307Z,38.77
2023-02-11T18:29:50.490Z,39.87
2023-02-11T18:31:57.616Z,39.13
2023-02-11T18:34:01.837Z,35.03
2023-02-11T18:36:06.955Z,38.10
2023-02-11T18:38:09.781Z,47.57
2023-02-11T18:40:14.011Z,36.87
2023-02-11T18:42:16.855Z,40.33
2023-02-11T18:44:22.257Z,43.47
2023-02-11T18:46:25.151Z,38.07
2023-02-11T18:48:28.400Z,41.23
2023-02-11T18:50:32.806Z,35.43
2023-02-11T18:52:38.336Z,36.10
2023-02-11T18:54:41.090Z,37.20
2023-02-11T18:56:44.212Z,35.30
2023-02-11T18:58:47.377Z,40.77
2023-02-11T19:00:50.914Z,37.93
2023-02-11T19:02:54.071Z,36.50
2023-02-11T19:04:57.284Z,41.13
2023-02-11T19:07:03.641Z,38.27
2023-02-11T19:09:09.325Z,41.03
2023-02-11T19:11:12.433Z,40.73
2023-02-11T19:30:46.317Z,38.30
2023-02-11T19:32:54.779Z,40.03
2023-02-11T19:38:50.110Z,34.77
2023-02-11T19:41:38.944Z,41.03
2023-02-11T19:43:52.845Z,43.87
2023-02-11T19:46:01.881Z,37.50
2023-02-11T19:48:06.780Z,44.37
2023-02-11T19:50:12.860Z,47.77
2023-02-11T19:52:16.360Z,39.37
2023-02-11T19:54:20.580Z,43.17
2023-02-11T20:14:16.089Z,45.47
2023-02-11T20:17:05.811Z,48.73
2023-02-11T20:19:38.746Z,46.67
2023-02-11T20:23:04.728Z,50.03
2023-02-11T20:28:56.307Z,63.10
2023-02-11T20:31:07.357Z,46.17
2023-02-11T20:58:49.448Z,52.35
2023-02-11T21:01:17.756Z,48.50
2023-02-11T21:14:45.742Z,44.37
2023-02-11T21:21:32.768Z,46.10
2023-02-11T21:37:46.716Z,47.13
2023-02-11T21:47:30.254Z,46.50
2023-02-11T21:49:41.648Z,46.07
2023-02-11T21:51:54.700Z,44.13
2023-02-11T21:53:59.620Z,40.10
2023-02-11T21:56:10.107Z,51.87
2023-02-11T21:58:14.630Z,41.97
2023-02-11T22:00:18.925Z,43.73
2023-02-11T22:02:24.062Z,49.17
2023-02-11T22:04:27.400Z,46.57
2023-02-11T22:06:34.824Z,45.67
2023-02-11T22:08:38.319Z,48.47
2023-02-11T22:10:43.417Z,43.53
2023-02-11T22:12:46.776Z,49.20
2023-02-11T22:14:49.845Z,54.90
2023-02-11T22:16:52.990Z,49.97
2023-02-11T22:18:58.627Z,54.03
2023-02-11T22:21:03.287Z,58.03
2023-02-11T22:23:12.459Z,55.90
2023-02-11T22:25:27.215Z,60.97
2023-02-11T22:27:36.707Z,56.37
2023-02-11T22:29:43.083Z,59.70
2023-02-11T22:31:46.236Z,59.57
2023-02-11T22:33:49.347Z,56.80
2023-02-11T22:35:59.809Z,58.67
2023-02-11T22:38:02.721Z,53.43
2023-02-11T22:40:08.501Z,62.23
2023-02-11T22:42:11.411Z,61.17
2023-02-11T22:44:16.233Z,53.80
2023-02-11T22:46:20.620Z,54.57
2023-02-11T22:48:23.610Z,52.00
2023-02-11T22:50:26.692Z,50.73
2023-02-11T22:52:30.035Z,50.87
2023-02-11T22:54:33.783Z,54.20
2023-02-11T22:56:38.259Z,50.27
2023-02-11T22:58:41.697Z,60.73
2023-02-11T23:00:44.683Z,48.90
2023-02-11T23:02:47.637Z,51.13
2023-02-11T23:04:50.597Z,51.83
2023-02-11T23:06:53.431Z,52.33
2023-02-11T23:08:56.604Z,55.73
2023-02-11T23:11:05.593Z,51.67
2023-02-11T23:13:11.006Z,54.07
2023-02-11T23:15:15.969Z,51.43
2023-02-11T23:17:19.502Z,55.43
2023-02-11T23:19:22.329Z,58.07
2023-02-11T23:21:27.342Z,50.20
2023-02-11T23:23:30.250Z,54.53
2023-02-11T23:25:34.084Z,55.73
2023-02-11T23:27:36.842Z,56.47
2023-02-11T23:29:41.122Z,61.60
2023-02-11T23:31:46.467Z,57.67
2023-02-11T23:33:50.427Z,54.80
2023-02-11T23:35:53.833Z,58.13
2023-02-11T23:37:56.804Z,56.83
2023-02-11T23:39:59.690Z,57.17
2023-02-11T23:42:02.819Z,58.70
2023-02-11T23:44:06.019Z,60.77
2023-02-11T23:46:10.448Z,58.00
2023-02-11T23:48:13.303Z,61.03
2023-02-11T23:50:16.270Z,53.50
2023-02-11T23:52:19.385Z,56.93
2023-02-11T23:54:22.458Z,58.47
2023-02-11T23:56:27.470Z,57.33
2023-02-11T23:58:30.700Z,58.40
